createdAt,value
2022-08-07T00:00:36.658Z,10.57
2022-08-07T00:03:07.211Z,9.40
2022-08-07T00:05:36.166Z,10.90
2022-08-07T00:08:04.986Z,9.02
2022-08-07T00:10:34.617Z,10.38
2022-08-07T00:13:17.471Z,9.35
2022-08-07T00:15:51.584Z,8.18
2022-08-07T00:18:24.642Z,8.20
2022-08-07T00:20:55.243Z,8.05
2022-08-07T00:23:23.440Z,8.38
2022-08-07T00:25:58.166Z,9.73
2022-08-07T00:28:33.723Z,9.85
2022-08-07T00:31:12.354Z,8.35
2022-08-07T00:33:42.988Z,8.50
2022-08-07T00:36:14.168Z,7.88
2022-08-07T00:38:40.873Z,7.28
2022-08-07T00:41:09.920Z,9.20
2022-08-07T00:43:59.829Z,7.95
2022-08-07T00:46:27.771Z,7.90
2022-08-07T00:48:54.315Z,9.02
2022-08-07T00:51:21.232Z,8.75
2022-08-07T00:53:55.339Z,8.30
2022-08-07T00:56:23.394Z,9.15
2022-08-07T00:58:57.579Z,8.35
2022-08-07T01:01:24.530Z,10.25
2022-08-07T01:03:57.201Z,7.63
2022-08-07T01:06:28.979Z,9.25
2022-08-07T01:08:59.364Z,7.50
2022-08-07T01:12:09.585Z,9.27
2022-08-07T01:14:16.822Z,9.48
2022-08-07T01:16:47.250Z,7.93
2022-08-07T01:19:19.212Z,9.05
2022-08-07T01:21:49.202Z,8.57
2022-08-07T01:24:21.223Z,8.93
2022-08-07T01:26:51.967Z,8.05
2022-08-07T01:29:20.564Z,8.82
2022-08-07T01:31:49.596Z,8.30
2022-08-07T01:34:18.732Z,9.70
2022-08-07T01:36:52.598Z,7.70
2022-08-07T01:39:41.445Z,7.57
2022-08-07T01:42:38.473Z,7.55
2022-08-07T01:45:10.100Z,8.02
2022-08-07T01:48:29.335Z,6.32
2022-08-07T01:50:32.167Z,7.53
2022-08-07T01:53:01.758Z,7.45
2022-08-07T01:55:39.998Z,8.73
2022-08-07T01:58:27.359Z,8.80
2022-08-07T02:01:09.828Z,8.68
2022-08-07T02:03:51.976Z,6.80
2022-08-07T02:06:31.706Z,8.55
2022-08-07T02:09:03.633Z,7.75
2022-08-07T02:12:03.236Z,6.88
2022-08-07T02:14:40.908Z,7.10
2022-08-07T02:17:10.884Z,7.53
2022-08-07T02:20:04.550Z,8.93
2022-08-07T02:22:28.578Z,7.25
2022-08-07T02:24:57.947Z,7.13
2022-08-07T02:27:26.370Z,6.53
2022-08-07T02:30:04.042Z,6.90
2022-08-07T02:32:38.683Z,7.25
2022-08-07T02:35:10.836Z,7.55
2022-08-07T02:37:44.154Z,7.65
2022-08-07T02:40:34.916Z,8.35
2022-08-07T02:42:59.181Z,8.02
2022-08-07T02:45:58.292Z,6.40
2022-08-07T02:48:15.702Z,6.60
2022-08-07T02:50:44.933Z,7.10
2022-08-07T02:53:18.031Z,8.10
2022-08-07T02:56:04.287Z,7.20
2022-08-07T02:58:34.011Z,5.40
2022-08-07T03:01:03.110Z,5.55
2022-08-07T03:03:42.101Z,7.43
2022-08-07T03:06:25.994Z,7.18
2022-08-07T03:09:01.852Z,8.20
2022-08-07T03:11:29.467Z,7.40
2022-08-07T03:14:01.767Z,6.88
2022-08-07T03:16:32.447Z,7.07
2022-08-07T03:19:00.098Z,6.88
2022-08-07T03:21:28.316Z,6.78
2022-08-07T03:24:20.820Z,9.70
2022-08-07T03:26:58.479Z,7.45
2022-08-07T03:29:33.915Z,8.25
2022-08-07T03:32:07.086Z,6.63
2022-08-07T03:34:47.163Z,6.72
2022-08-07T03:37:32.614Z,6.03
2022-08-07T03:40:15.615Z,6.13
2022-08-07T03:42:43.822Z,6.45
2022-08-07T03:45:11.552Z,5.63
2022-08-07T03:47:47.749Z,6.95
2022-08-07T03:50:23.154Z,6.75
2022-08-07T03:52:52.289Z,7.00
2022-08-07T03:55:19.080Z,6.22
2022-08-07T03:58:34.144Z,6.20
2022-08-07T04:00:36.830Z,6.03
2022-08-07T04:03:04.818Z,7.68
2022-08-07T04:05:39.389Z,5.78
2022-08-07T04:08:15.911Z,7.22
2022-08-07T04:10:53.893Z,5.80
2022-08-07T04:14:11.008Z,3.58
2022-08-07T04:16:31.325Z,4.07
2022-08-07T04:19:12.623Z,4.13
2022-08-07T04:21:58.841Z,7.60
2022-08-07T04:24:33.781Z,4.93
2022-08-07T04:27:03.026Z,7.07
2022-08-07T04:29:58.205Z,5.40
2022-08-07T04:32:18.206Z,5.85
2022-08-07T04:34:56.180Z,9.70
2022-08-07T04:37:22.854Z,5.63
2022-08-07T04:39:50.743Z,7.32
2022-08-07T04:42:17.432Z,6.50
2022-08-07T04:45:02.598Z,10.27
2022-08-07T04:48:00.915Z,9.43
2022-08-07T04:50:28.312Z,11.13
2022-08-07T04:53:07.138Z,9.60
2022-08-07T04:58:09.898Z,9.23
2022-08-07T04:59:17.095Z,8.00
2022-08-07T05:02:05.768Z,8.65
2022-08-07T05:04:53.718Z,6.90
2022-08-07T05:07:30.417Z,10.05
2022-08-07T05:10:28.428Z,7.63
2022-08-07T05:14:44.943Z,8.27
2022-08-07T05:15:53.550Z,10.82
2022-08-07T05:18:25.635Z,8.55
2022-08-07T05:20:56.580Z,9.90
2022-08-07T05:23:44.667Z,8.05
2022-08-07T05:26:23.932Z,10.38
2022-08-07T05:28:53.682Z,9.63
2022-08-07T05:31:35.319Z,9.82
2022-08-07T05:34:10.786Z,10.40
2022-08-07T05:36:40.699Z,10.38
2022-08-07T05:40:05.321Z,10.35
2022-08-07T05:42:02.584Z,8.48
2022-08-07T05:44:33.671Z,8.98
2022-08-07T05:47:01.704Z,9.10
2022-08-07T05:49:48.026Z,8.00
2022-08-07T05:52:14.580Z,8.95
2022-08-07T05:54:55.578Z,7.38
2022-08-07T05:57:26.755Z,10.18
2022-08-07T06:00:01.185Z,9.48
2022-08-07T06:02:33.084Z,7.68
2022-08-07T06:05:05.947Z,8.10
2022-08-07T06:08:13.437Z,7.60
2022-08-07T06:10:21.721Z,7.72
2022-08-07T06:12:49.645Z,8.25
2022-08-07T06:15:20.010Z,9.02
2022-08-07T06:17:53.935Z,8.30
2022-08-07T06:20:31.825Z,8.80
2022-08-07T06:23:46.869Z,8.18
2022-08-07T06:25:59.724Z,8.20
2022-08-07T06:28:27.905Z,8.95
2022-08-07T06:30:55.676Z,8.45
2022-08-07T06:33:22.916Z,9.50
2022-08-07T06:36:06.505Z,8.65
2022-08-07T06:38:36.732Z,9.27
2022-08-07T06:41:12.895Z,7.75
2022-08-07T06:43:46.156Z,9.68
2022-08-07T06:46:15.334Z,9.85
2022-08-07T06:48:58.278Z,10.77
2022-08-07T06:51:33.180Z,11.02
2022-08-07T06:55:31.345Z,10.30
2022-08-07T06:56:54.491Z,9.70
2022-08-07T07:00:12.289Z,11.70
2022-08-07T07:02:48.656Z,11.07
2022-08-07T07:05:08.914Z,12.60
2022-08-07T07:08:00.170Z,11.30
2022-08-07T07:10:33.495Z,12.35
2022-08-07T07:13:13.171Z,11.95
2022-08-07T07:15:51.772Z,13.25
2022-08-07T07:19:00.254Z,16.23
2022-08-07T07:22:05.027Z,14.30
2022-08-07T07:24:29.343Z,16.73
2022-08-07T07:27:00.949Z,16.25
2022-08-07T07:29:56.491Z,16.38
2022-08-07T07:32:23.105Z,16.48
2022-08-07T07:34:55.827Z,18.90
2022-08-07T07:37:49.414Z,28.77
2022-08-07T07:40:19.674Z,15.25
2022-08-07T07:45:24.603Z,15.30
2022-08-07T07:48:12.923Z,17.58
2022-08-07T07:51:02.018Z,20.67
2022-08-07T07:53:30.462Z,21.67
2022-08-07T07:56:02.004Z,21.17
2022-08-07T07:58:40.183Z,21.25
2022-08-07T08:02:03.206Z,23.73
2022-08-07T08:04:09.324Z,23.50
2022-08-07T08:06:39.572Z,27.33
2022-08-07T08:09:08.578Z,21.77
2022-08-07T08:11:59.492Z,28.45
2022-08-07T08:14:26.649Z,28.20
2022-08-07T08:16:56.324Z,34.58
2022-08-07T08:20:19.531Z,27.80
2022-08-07T08:22:54.342Z,33.75
2022-08-07T08:25:43.048Z,28.75
2022-08-07T08:28:24.156Z,25.63
2022-08-07T08:31:15.901Z,33.03
2022-08-07T08:33:49.036Z,35.53
2022-08-07T08:36:18.148Z,39.10
2022-08-07T08:38:55.978Z,38.60
2022-08-07T08:41:31.489Z,36.88
2022-08-07T08:47:13.783Z,29.00
2022-08-07T08:50:06.133Z,27.17
2022-08-07T08:52:51.548Z,47.03
2022-08-07T08:55:55.238Z,30.02
2022-08-07T08:58:50.602Z,33.75
2022-08-07T09:01:29.758Z,45.30
2022-08-07T09:04:28.822Z,37.30
2022-08-07T09:07:29.331Z,36.88
2022-08-07T09:10:36.135Z,36.45
2022-08-07T09:13:14.679Z,33.83
2022-08-07T09:16:23.931Z,39.63
2022-08-07T09:19:51.134Z,38.20
2022-08-07T09:24:33.365Z,54.88
2022-08-07T09:25:35.547Z,30.33
2022-08-07T09:30:03.263Z,55.35
2022-08-07T09:31:22.699Z,42.72
2022-08-07T09:33:58.939Z,51.33
2022-08-07T09:36:37.315Z,38.80
2022-08-07T09:39:53.205Z,41.08
2022-08-07T09:42:23.072Z,46.58
2022-08-07T09:47:23.773Z,58.72
2022-08-07T09:48:11.704Z,53.20
2022-08-07T09:52:15.955Z,62.28
2022-08-07T09:54:08.238Z,82.18
2022-08-07T09:56:42.791Z,84.47
2022-08-07T10:00:01.423Z,104.32
2022-08-07T10:02:40.400Z,112.40
2022-08-07T10:05:59.749Z,114.13
2022-08-07T10:09:07.213Z,114.13
2022-08-07T10:12:00.032Z,101.95
2022-08-07T10:14:33.546Z,121.65
2022-08-07T10:17:14.151Z,125.68
2022-08-07T10:19:58.108Z,121.93
2022-08-07T10:22:59.290Z,124.00
2022-08-07T10:25:42.216Z,129.18
2022-08-07T10:31:06.087Z,103.07
2022-08-07T10:34:06.676Z,111.22
2022-08-07T10:36:58.453Z,125.18
2022-08-07T10:40:02.735Z,140.20
2022-08-07T10:42:47.286Z,148.18
2022-08-07T10:45:57.838Z,162.13
2022-08-07T10:48:41.067Z,175.75
2022-08-07T10:52:02.292Z,178.63
2022-08-07T10:54:35.460Z,188.32
2022-08-07T10:57:01.968Z,215.10
2022-08-07T10:59:52.218Z,207.38
2022-08-07T11:02:53.649Z,230.32
2022-08-07T11:05:49.159Z,231.13
2022-08-07T11:08:18.408Z,239.38
2022-08-07T11:11:02.962Z,228.10
2022-08-07T11:14:43.940Z,237.05
2022-08-07T11:16:38.955Z,237.23
2022-08-07T11:19:14.103Z,235.73
2022-08-07T11:22:32.238Z,238.52
2022-08-07T11:25:25.674Z,245.80
2022-08-07T11:28:16.577Z,262.25
2022-08-07T11:31:08.584Z,212.88
2022-08-07T11:34:04.193Z,229.80
2022-08-07T11:36:37.584Z,220.85
2022-08-07T11:39:19.853Z,268.63
2022-08-07T11:42:18.559Z,258.58
2022-08-07T11:44:52.799Z,231.63
2022-08-07T11:48:18.089Z,242.98
2022-08-07T11:51:40.874Z,271.33
2022-08-07T11:54:33.297Z,265.17
2022-08-07T11:57:57.729Z,270.17
2022-08-07T12:01:00.188Z,230.45
2022-08-07T12:04:17.352Z,182.00
2022-08-07T12:06:57.213Z,175.13
2022-08-07T12:12:28.784Z,177.93
2022-08-07T12:15:03.192Z,181.38
2022-08-07T12:17:59.217Z,193.50
2022-08-07T12:20:38.061Z,217.00
2022-08-07T12:23:37.120Z,194.50
2022-08-07T12:26:30.053Z,225.52
2022-08-07T12:29:07.541Z,206.90
2022-08-07T12:32:04.951Z,204.98
2022-08-07T12:34:38.805Z,222.57
2022-08-07T12:37:16.851Z,225.90
2022-08-07T12:39:51.777Z,227.90
2022-08-07T12:42:28.026Z,231.52
2022-08-07T12:44:58.609Z,213.80
2022-08-07T12:47:40.635Z,244.80
2022-08-07T12:50:33.835Z,217.82
2022-08-07T12:53:17.697Z,251.60
2022-08-07T12:56:03.935Z,253.30
2022-08-07T12:58:39.631Z,235.75
2022-08-07T13:01:09.023Z,159.18
2022-08-07T13:03:54.904Z,151.60
2022-08-07T13:06:54.205Z,140.43
2022-08-07T13:10:37.493Z,147.48
2022-08-07T13:12:51.901Z,175.55
2022-08-07T13:15:35.896Z,212.10
2022-08-07T13:18:28.284Z,151.50
2022-08-07T13:21:37.356Z,142.40
2022-08-07T13:24:18.495Z,149.90
2022-08-07T13:27:22.446Z,126.28
2022-08-07T13:29:56.869Z,86.75
2022-08-07T13:32:45.615Z,61.42
2022-08-07T13:36:00.467Z,84.53
2022-08-07T13:38:41.927Z,59.65
2022-08-07T13:41:31.137Z,67.53
2022-08-07T13:44:01.797Z,73.32
2022-08-07T13:46:37.645Z,66.82
2022-08-07T13:50:34.652Z,64.22
2022-08-07T13:52:04.851Z,55.10
2022-08-07T13:54:49.604Z,49.53
2022-08-07T13:57:38.191Z,52.20
2022-08-07T14:00:06.760Z,47.92
2022-08-07T14:02:49.500Z,42.40
2022-08-07T14:05:23.525Z,38.35
2022-08-07T14:08:00.990Z,39.63
2022-08-07T14:10:41.976Z,39.92
2022-08-07T14:13:16.075Z,39.08
2022-08-07T14:15:50.680Z,44.28
2022-08-07T14:18:40.242Z,38.75
2022-08-07T14:22:00.469Z,40.38
2022-08-07T14:24:08.963Z,35.53
2022-08-07T14:26:51.306Z,34.67
2022-08-07T14:30:06.548Z,31.05
2022-08-07T14:32:12.637Z,26.08
2022-08-07T14:34:46.434Z,24.85
2022-08-07T14:37:17.352Z,21.15
2022-08-07T14:43:55.924Z,20.88
2022-08-07T14:45:25.530Z,21.30
2022-08-07T14:48:19.868Z,25.20
2022-08-07T14:51:00.103Z,28.30
2022-08-07T14:54:03.574Z,30.45
2022-08-07T14:56:29.815Z,26.88
2022-08-07T14:59:02.101Z,27.85
2022-08-07T15:01:42.641Z,31.23
2022-08-07T15:04:11.653Z,26.85
2022-08-07T15:06:40.681Z,26.05
2022-08-07T15:12:10.418Z,23.65
2022-08-07T15:15:09.187Z,23.20
2022-08-07T15:17:56.148Z,21.15
2022-08-07T15:20:32.406Z,20.52
2022-08-07T15:23:20.208Z,20.60
2022-08-07T15:25:54.161Z,21.55
2022-08-07T15:34:02.728Z,21.63
2022-08-07T15:37:02.792Z,20.35
2022-08-07T15:39:22.415Z,21.60
2022-08-07T15:42:45.116Z,21.37
2022-08-07T15:44:52.296Z,20.50
2022-08-07T15:47:21.843Z,20.02
2022-08-07T15:51:01.208Z,20.98
2022-08-07T15:53:05.452Z,21.30
2022-08-07T15:58:23.663Z,21.30
2022-08-07T16:01:00.033Z,20.75
2022-08-07T16:03:47.453Z,24.88
2022-08-07T16:06:38.358Z,24.60
2022-08-07T16:09:41.173Z,23.65
2022-08-07T16:12:37.834Z,24.33
2022-08-07T16:15:55.751Z,26.98
2022-08-07T16:18:49.465Z,27.17
2022-08-07T16:22:03.552Z,31.63
2022-08-07T16:24:52.633Z,30.05
2022-08-07T16:27:40.311Z,29.60
2022-08-07T16:30:30.836Z,28.83
2022-08-07T16:34:01.404Z,29.52
2022-08-07T16:36:20.885Z,28.27
2022-08-07T16:39:33.482Z,28.55
2022-08-07T16:42:30.676Z,26.38
2022-08-07T16:46:40.968Z,26.08
2022-08-07T16:49:10.427Z,23.30
2022-08-07T16:52:49.288Z,22.08
2022-08-07T16:55:08.456Z,24.20
2022-08-07T16:58:03.994Z,25.92
2022-08-07T17:00:40.815Z,27.33
2022-08-07T17:03:17.537Z,39.88
2022-08-07T17:06:30.137Z,49.05
2022-08-07T17:10:05.165Z,57.33
2022-08-07T17:12:34.476Z,72.53
2022-08-07T17:15:15.764Z,77.80
2022-08-07T17:17:48.389Z,67.57
2022-08-07T17:20:41.864Z,73.05
2022-08-07T17:23:32.350Z,72.00
2022-08-07T17:26:24.344Z,72.88
2022-08-07T17:28:57.899Z,82.60
2022-08-07T17:31:44.384Z,82.88
2022-08-07T17:35:40.033Z,93.90
2022-08-07T17:38:05.005Z,90.22
2022-08-07T17:40:34.277Z,91.72
2022-08-07T17:43:18.020Z,103.65
2022-08-07T17:45:54.838Z,110.40
2022-08-07T17:48:30.620Z,111.65
2022-08-07T17:51:21.606Z,128.50
2022-08-07T17:54:29.787Z,141.93
2022-08-07T17:57:18.702Z,183.45
2022-08-07T17:59:52.294Z,173.25
2022-08-07T18:02:32.661Z,185.10
2022-08-07T18:05:21.968Z,198.18
2022-08-07T18:08:10.027Z,228.70
2022-08-07T18:12:06.990Z,235.98
2022-08-07T18:13:49.591Z,240.20
2022-08-07T18:16:31.194Z,263.08
2022-08-07T18:21:10.406Z,285.83
2022-08-07T18:22:26.424Z,285.63
2022-08-07T18:25:24.163Z,285.95
2022-08-07T18:28:34.341Z,298.85
2022-08-07T18:31:18.646Z,297.27
2022-08-07T18:34:03.900Z,293.42
2022-08-07T18:36:43.599Z,307.80
2022-08-07T18:40:05.152Z,291.00
2022-08-07T18:42:54.899Z,283.13
2022-08-07T18:45:44.209Z,303.15
2022-08-07T18:50:19.055Z,293.83
2022-08-07T18:52:51.758Z,281.40
2022-08-07T18:55:43.365Z,286.20
2022-08-07T18:58:37.111Z,264.95
2022-08-07T19:02:17.300Z,246.15
2022-08-07T19:04:32.135Z,231.50
2022-08-07T19:07:16.395Z,222.30
2022-08-07T19:10:14.835Z,227.77
2022-08-07T19:12:59.431Z,223.68
2022-08-07T19:16:05.959Z,218.40
2022-08-07T19:18:55.028Z,215.32
2022-08-07T19:21:47.980Z,211.85
2022-08-07T19:24:30.516Z,214.20
2022-08-07T19:28:57.982Z,206.65
2022-08-07T19:30:57.666Z,208.98
2022-08-07T19:32:46.228Z,188.82
2022-08-07T19:35:25.330Z,199.65
2022-08-07T19:37:59.875Z,203.65
2022-08-07T19:40:34.578Z,202.80
2022-08-07T19:43:10.807Z,201.05
2022-08-07T19:46:07.889Z,197.82
2022-08-07T19:48:42.751Z,198.98
2022-08-07T19:51:19.444Z,197.40
2022-08-07T19:54:30.988Z,203.75
2022-08-07T19:58:00.368Z,226.82
2022-08-07T19:59:41.553Z,221.52
2022-08-07T20:02:29.230Z,236.88
2022-08-07T20:04:58.020Z,216.65
2022-08-07T20:07:47.794Z,222.98
2022-08-07T20:10:36.939Z,222.10
2022-08-07T20:13:22.484Z,237.80
2022-08-07T20:15:50.025Z,246.35
2022-08-07T20:18:20.181Z,235.18
2022-08-07T20:20:59.972Z,266.35
2022-08-07T20:23:41.559Z,255.68
2022-08-07T20:26:11.050Z,241.48
2022-08-07T20:28:39.953Z,255.30
2022-08-07T20:31:21.452Z,264.58
2022-08-07T20:33:56.707Z,267.70
2022-08-07T20:36:27.236Z,259.13
2022-08-07T20:39:00.241Z,247.95
2022-08-07T20:41:38.436Z,249.57
2022-08-07T20:44:12.516Z,254.68
2022-08-07T20:46:44.639Z,254.20
2022-08-07T20:49:58.480Z,253.55
2022-08-07T20:52:07.836Z,235.05
2022-08-07T20:54:41.631Z,246.40
2022-08-07T20:57:12.833Z,259.90
2022-08-07T21:00:06.432Z,252.40
2022-08-07T21:02:54.372Z,256.30
2022-08-07T21:05:42.651Z,249.18
2022-08-07T21:08:16.518Z,268.30
2022-08-07T21:10:49.450Z,255.18
2022-08-07T21:13:24.532Z,257.27
2022-08-07T21:16:09.200Z,277.75
2022-08-07T21:18:41.134Z,297.63
2022-08-07T21:21:09.085Z,280.75
2022-08-07T21:23:58.637Z,263.15
2022-08-07T21:26:45.374Z,287.88
2022-08-07T21:29:21.327Z,262.35
2022-08-07T21:32:48.778Z,268.30
2022-08-07T21:35:34.639Z,261.70
2022-08-07T21:38:13.277Z,281.40
2022-08-07T21:41:10.916Z,266.02
2022-08-07T21:44:14.683Z,255.80
2022-08-07T21:47:12.128Z,275.05
2022-08-07T21:50:01.416Z,265.40
2022-08-07T21:52:44.456Z,240.10
2022-08-07T21:55:27.987Z,241.68
2022-08-07T21:58:30.023Z,220.93
2022-08-07T22:02:06.153Z,219.27
2022-08-07T22:04:51.376Z,222.52
2022-08-07T22:07:48.625Z,217.07
2022-08-07T22:10:17.638Z,203.82
2022-08-07T22:12:45.232Z,271.38
2022-08-07T22:16:39.209Z,267.83
2022-08-07T22:18:07.248Z,225.30
2022-08-07T22:20:44.336Z,233.98
2022-08-07T22:23:13.762Z,214.77
2022-08-07T22:25:51.982Z,219.48
2022-08-07T22:28:37.427Z,209.45
2022-08-07T22:31:55.968Z,223.57
2022-08-07T22:34:08.327Z,226.77
2022-08-07T22:36:47.618Z,219.65
2022-08-07T22:39:52.700Z,214.93
2022-08-07T22:42:25.621Z,207.13
2022-08-07T22:44:59.103Z,203.05
2022-08-07T22:47:44.909Z,206.05
2022-08-07T22:50:29.093Z,240.30
2022-08-07T22:53:26.816Z,276.50
2022-08-07T22:56:09.176Z,215.98
2022-08-07T22:58:49.422Z,287.23
2022-08-07T23:01:50.828Z,292.40
2022-08-07T23:04:30.154Z,215.25
2022-08-07T23:07:41.742Z,206.95
2022-08-07T23:10:37.600Z,217.32
2022-08-07T23:13:49.091Z,226.57
2022-08-07T23:16:54.629Z,235.52
2022-08-07T23:19:51.695Z,253.98
2022-08-07T23:22:49.345Z,255.82
2022-08-07T23:25:57.829Z,266.85
2022-08-07T23:28:56.535Z,239.85
2022-08-07T23:32:48.851Z,254.73
2022-08-07T23:35:05.295Z,259.35
2022-08-07T23:38:01.633Z,245.52
2022-08-07T23:40:34.175Z,243.20
2022-08-07T23:43:37.717Z,254.73
2022-08-07T23:46:27.265Z,234.13
2022-08-07T23:49:15.825Z,241.73
2022-08-07T23:52:58.692Z,223.77
2022-08-07T23:54:55.228Z,198.32
2022-08-07T23:57:42.935Z,164.25
